Aeroporto :
LOGIN :

Iscrizione | Disclaimer

   EN    FR    IT 

 










Sommario :    VFR   VFR Marginale   IFR   IFR Intensivo   IFR Molto Intensivo
Visibilità : 
Base nubi : 
>= 8 km
>= 3000ft
5 / 8 km
1000 / 3000 ft
1500m / 5 km
500 / 1000 ft
800 / 1500m
200 / 500 ft
< 800m
< 200 ft
Simboli :   Temporali  Nebbia  Neve Forte  Precipitazioni Forti  Vento > 20 kt
SIGMETs :   Varie  Temporali  Ghiacco  Turbolenza  Onda orograficha  Ceneri Vulcaniche






- Altitudine del aeroporto : 2356 ft


LZTT - Poprad Tatry

ULTIMO METAR :
  • 232100Z VRB01KT 9999 -RA BKN012 OVC020 05/05 Q1004

METARs OBSOLETI :
  • 232030Z VRB02KT 9999 -RA BKN016 OVC030 05/04 Q1004
  • 232000Z 18006KT 9999 -RA BKN020 OVC046 06/04 Q1004
  • 231930Z 18009KT 9999 BKN020 OVC060 06/04 Q1004
  • 231900Z 18008KT 9999 BKN020 OVC060 06/04 Q1004
  • 231830Z 18007KT 9999 SCT016 BKN023 06/04 Q1004
  • 231800Z 18004KT 150V230 9999 SCT016 OVC023 06/03 Q1004 NOSIG
  • 231730Z 18004KT 9999 FEW016 OVC023 06/04 Q1004 NOSIG
  • 231700Z 23003KT 9999 FEW016 OVC023 06/03 Q1004 NOSIG
  • 231630Z 23007KT 9999 FEW016 OVC023 07/03 Q1004 NOSIG

TAF TAF LZTT
Valido dal 23 a 18 ore il 24 a 18 ore UTC


231715Z 2318/2418 24007KT 9999 SCT010 OVC020
TEMPO 2318/2408 -RA BKN008 OVC018
TEMPO 2321/2406 5000 RA BKN006 OVC014
BECMG 2408/2410 9999 FEW018 BKN040



MetMap, La meteo Aeronautica in un colpo d'occhio ! - Copyright ORBIFLY Dicembre 2007 - Disclaimer

ORBIFLY MET'MAP TEAM :

Programmazione e sviluppo : Alexandra Zaïnal
Concezione : Baudouin d'Aumeries
Supporto tecnico e logistico : Manuel Goepfert
Aiuto : Marc-Olivier Méhu
Aiuto per la traduzione : Arnaldo La Scala




FONTI E CREDITI :

   NOAA